KBGR Airport Information

Runway Information
Runway 15 Length 11440 ft width 200 ft
Elevation 192 ft Threshold 0 ft Heading 134
Runway 33 Length 11440 ft Width 200 ft
Elevation 163 ft Threshold 0 ft Heading 314
Airport Frequencies
Type A/D Name APP/DEP Frequency 118.925 MHZ
Type ASOS Name ASOS Frequency 127.75 MHZ
Type ATIS Name ATIS Frequency 127.75 MHZ
Type CLD Name CLNC DEL Frequency 135.9 MHZ
Type GND Name GND Frequency 121.9 MHZ
Type MISC Name ARNG OPS Frequency 41.2 MHZ
Type OPS Name ANG OPS Frequency 31.1 MHZ
Type RDO Name RDO Frequency 122.2 MHZ
Type TWR Name TWR Frequency 120.7 MHZ
Type UNIC Name UNICOM Frequency 122.95 MHZ
Airport Navaids
Type NDB Name Totte Frequency 227 KHZ
Type VORTAC Name Bangor Frequency 114800 KHZ
Airport Weather Information & NOTAM
ADDS - METARS form results

(1846 UTC 17 July 2018)
 
METAR text: KBGR 171834Z 12005KT 5SM -RA BR FEW013 BKN095 OVC110 22/21 A2978 RMK AO2 LTG DSNT W P0007 T02220211
Conditions at: KBGR (BANGOR , ME, US) observed 1834 UTC 17 July 2018
Temperature: 22.2°C (72°F)
Dewpoint: 21.1°C (70°F) [RH = 93%]
Pressure (altimeter): 29.78 inches Hg (1008.5 mb)
Winds: from the ESE (120 degrees) at 6 MPH (5 knots; 2.6 m/s)
Visibility: 5 miles (8 km)
Ceiling: 9500 feet AGL
Clouds: few clouds at 1300 feet AGL
broken clouds at 9500 feet AGL
overcast cloud deck at 11000 feet AGL
Weather: -RA BR  (light rain, mist)

METAR text: KBGR 171816Z 11003KT 2 1/2SM -RA BR SCT011 BKN070 OVC110 22/21 A2978 RMK AO2 PRESFR P0006 T02220206
Conditions at: KBGR (BANGOR , ME, US) observed 1816 UTC 17 July 2018
Temperature: 22.2°C (72°F)
Dewpoint: 20.6°C (69°F) [RH = 91%]
Pressure (altimeter): 29.78 inches Hg (1008.5 mb)
Winds: from the ESE (110 degrees) at 3 MPH (3 knots; 1.6 m/s)
Visibility: 2.50 miles (4.02 km)
Ceiling: 7000 feet AGL
Clouds: scattered clouds at 1100 feet AGL
broken clouds at 7000 feet AGL
overcast cloud deck at 11000 feet AGL
Weather: -RA BR  (light rain, mist)

METAR text: KBGR 171805Z 00000KT 2 1/2SM -RA BR BKN009 BKN070 OVC090 22/21 A2979 RMK AO2 P0004 T02170206
Conditions at: KBGR (BANGOR , ME, US) observed 1805 UTC 17 July 2018
Temperature: 21.7°C (71°F)
Dewpoint: 20.6°C (69°F) [RH = 93%]
Pressure (altimeter): 29.79 inches Hg (1008.9 mb)
Winds: calm
Visibility: 2.50 miles (4.02 km)
Ceiling: 900 feet AGL
Clouds: broken clouds at 900 feet AGL
broken clouds at 7000 feet AGL
overcast cloud deck at 9000 feet AGL
Weather: -RA BR  (light rain, mist)

METAR text: KBGR 171753Z 21006KT 6SM -RA BR OVC009 22/21 A2981 RMK AO2 RAB24 SLP090 P0000 60000 T02220206 10228 20183 55006
Conditions at: KBGR (BANGOR , ME, US) observed 1753 UTC 17 July 2018
Temperature: 22.2°C (72°F)
Dewpoint: 20.6°C (69°F) [RH = 91%]
Pressure (altimeter): 29.81 inches Hg (1009.6 mb)
[Sea-level pressure: 1009.0 mb]
Winds: from the SSW (210 degrees) at 7 MPH (6 knots; 3.1 m/s)
Visibility: 6 miles (10 km)
Ceiling: 900 feet AGL
Clouds: overcast cloud deck at 900 feet AGL
Weather: -RA BR  (light rain, mist)